createdAt,value
2018-01-27T12:52:57.119Z,56.90
2018-01-27T12:58:57.611Z,48.70
2018-01-27T13:01:24.663Z,45.30
2018-01-27T13:03:51.607Z,45.80
2018-01-27T13:06:18.470Z,48.20
2018-01-27T13:08:45.404Z,49.80
2018-01-27T13:11:12.270Z,49.20
2018-01-27T13:13:39.317Z,49.40
2018-01-27T13:16:06.272Z,50.00
2018-01-27T13:18:33.428Z,46.30
2018-01-27T13:21:00.371Z,46.80
2018-01-27T13:24:53.244Z,52.10
2018-01-27T13:27:20.167Z,44.10
2018-01-27T13:29:47.176Z,44.90
2018-01-27T13:32:13.945Z,45.50
2018-01-27T13:34:40.762Z,45.10
2018-01-27T13:37:07.743Z,44.10
2018-01-27T13:39:34.573Z,44.10
2018-01-27T13:42:01.644Z,44.40
2018-01-27T13:44:28.487Z,40.20
2018-01-27T13:46:55.305Z,41.60
2018-01-27T13:49:21.977Z,42.80
2018-01-27T13:51:48.825Z,43.60
2018-01-27T13:54:15.567Z,43.90
2018-01-27T13:56:42.570Z,38.20
2018-01-27T13:59:09.488Z,39.70
2018-01-27T14:01:36.296Z,40.60
2018-01-27T14:04:03.537Z,41.20
2018-01-27T14:06:30.555Z,40.90
2018-01-27T14:08:58.332Z,43.50
2018-01-27T14:17:19.728Z,45.70
2018-01-27T14:19:46.943Z,46.40
2018-01-27T14:22:27.430Z,47.20
2018-01-27T14:24:54.172Z,47.50
2018-01-27T14:27:20.884Z,48.50
2018-01-27T14:29:47.769Z,49.50
2018-01-27T14:32:14.822Z,50.20
2018-01-27T14:34:41.870Z,50.40
2018-01-27T14:37:08.828Z,50.90
2018-01-27T14:39:35.816Z,51.70
2018-01-27T14:42:03.271Z,52.40
2018-01-27T14:44:30.301Z,52.50
2018-01-27T14:46:57.040Z,53.20
2018-01-27T14:49:23.813Z,53.20
2018-01-27T14:51:51.203Z,53.60
2018-01-27T14:54:18.120Z,53.80
2018-01-27T14:56:45.493Z,53.80
2018-01-27T14:59:12.308Z,54.10
2018-01-27T15:04:36.211Z,54.90
2018-01-27T15:07:03.037Z,55.70
2018-01-27T15:09:30.155Z,56.40
2018-01-27T15:11:57.140Z,57.00
2018-01-27T15:14:24.195Z,56.60
2018-01-27T15:16:51.319Z,57.70
2018-01-27T15:19:18.224Z,57.90
2018-01-27T15:21:45.048Z,56.80
2018-01-27T15:24:12.103Z,56.00
2018-01-27T15:26:38.739Z,55.60
2018-01-27T15:29:05.581Z,56.40
2018-01-27T15:31:32.294Z,55.80
2018-01-27T15:33:59.104Z,56.20
2018-01-27T15:36:26.185Z,57.40
2018-01-27T15:38:53.207Z,55.50
2018-01-27T15:41:20.073Z,53.60
2018-01-27T15:43:46.790Z,52.20
2018-01-27T15:46:13.439Z,50.10
2018-01-27T15:48:41.002Z,47.70
2018-01-27T15:51:08.343Z,48.20
2018-01-27T15:53:35.303Z,47.40
2018-01-27T15:56:02.244Z,47.00
2018-01-27T15:58:29.009Z,46.10
2018-01-27T16:00:56.048Z,46.30
2018-01-27T16:03:22.911Z,46.40
2018-01-27T16:05:49.697Z,46.10
2018-01-27T16:08:16.869Z,46.30
2018-01-27T16:10:43.760Z,46.10
2018-01-27T16:13:10.652Z,45.80
2018-01-27T16:15:37.649Z,46.20
2018-01-27T16:18:04.512Z,45.70
2018-01-27T16:20:31.500Z,46.30
2018-01-27T16:22:58.607Z,45.60
2018-01-27T16:25:25.655Z,45.70
2018-01-27T16:27:52.415Z,47.10
2018-01-27T16:30:19.268Z,49.90
2018-01-27T16:32:46.002Z,51.50
2018-01-27T16:35:12.739Z,52.50
2018-01-27T16:37:39.728Z,49.50
2018-01-27T16:40:06.605Z,49.50
2018-01-27T16:42:33.600Z,50.70
2018-01-27T16:45:00.864Z,50.70
2018-01-27T16:47:27.789Z,51.80
2018-01-27T16:49:54.866Z,52.30
2018-01-27T16:52:21.942Z,49.80
2018-01-27T16:54:49.632Z,48.40
2018-01-27T16:57:16.618Z,48.00
2018-01-27T16:59:43.385Z,48.20
2018-01-27T17:02:10.104Z,48.60
2018-01-27T17:04:37.065Z,49.50
2018-01-27T17:07:03.863Z,48.20
2018-01-27T17:09:30.760Z,47.20
2018-01-27T17:11:57.765Z,46.40
2018-01-27T17:14:24.869Z,45.80
2018-01-27T17:16:51.713Z,45.10
2018-01-27T17:19:18.645Z,44.70
2018-01-27T17:21:45.957Z,44.10
2018-01-27T17:24:13.116Z,44.50
2018-01-27T17:26:40.261Z,44.40
2018-01-27T17:29:07.282Z,44.40
2018-01-27T17:31:34.079Z,44.10
2018-01-27T17:42:53.729Z,43.40
2018-01-27T17:45:20.784Z,45.90
2018-01-27T17:47:47.180Z,47.60
2018-01-27T17:50:13.717Z,48.60
2018-01-27T17:52:40.105Z,49.10
2018-01-27T17:55:06.513Z,50.40
2018-01-27T17:57:32.887Z,51.10
2018-01-27T17:59:59.477Z,53.00
2018-01-27T18:02:25.860Z,54.10
2018-01-27T18:04:52.514Z,55.40
2018-01-27T18:07:19.104Z,55.70
2018-01-27T18:09:45.509Z,56.40
2018-01-27T18:12:11.932Z,56.70
2018-01-27T18:14:38.303Z,56.90
2018-01-27T18:17:04.663Z,57.90
2018-01-27T18:19:31.029Z,59.10
2018-01-27T18:21:57.412Z,59.20
2018-01-27T18:24:24.669Z,60.20
2018-01-27T18:26:51.053Z,59.80
2018-01-27T18:29:17.441Z,60.20
2018-01-27T18:31:43.799Z,61.00
2018-01-27T18:34:10.173Z,60.80
2018-01-27T18:36:36.545Z,60.90
2018-01-27T18:39:03.024Z,61.00
2018-01-27T18:41:29.409Z,61.50
2018-01-27T18:43:55.788Z,61.30
2018-01-27T18:46:22.263Z,61.50
2018-01-27T18:48:48.690Z,62.10
2018-01-27T18:51:15.036Z,60.50
2018-01-27T18:53:41.427Z,60.00
2018-01-27T18:56:07.832Z,60.40
2018-01-27T18:58:34.223Z,60.20
2018-01-27T19:01:00.575Z,60.10
2018-01-27T19:03:26.953Z,61.00
2018-01-27T19:05:53.336Z,61.00
2018-01-27T19:08:19.700Z,61.30
2018-01-27T19:10:46.457Z,61.00
2018-01-27T19:13:12.890Z,61.40
2018-01-27T19:15:39.340Z,62.80
2018-01-27T19:18:05.751Z,62.20
2018-01-27T19:20:32.341Z,63.00
2018-01-27T19:22:58.976Z,62.40
2018-01-27T19:25:25.439Z,62.30
2018-01-27T19:27:52.006Z,63.00
2018-01-27T19:30:18.797Z,62.70
2018-01-27T19:32:45.317Z,63.50
2018-01-27T19:35:11.921Z,63.80
2018-01-27T19:37:38.306Z,63.00
2018-01-27T19:40:05.288Z,63.50
2018-01-27T19:42:32.418Z,63.20
2018-01-27T19:44:58.861Z,63.10
2018-01-27T19:47:25.259Z,63.50
2018-01-27T19:49:51.629Z,63.30
2018-01-27T19:52:18.126Z,63.60
2018-01-27T19:54:44.595Z,64.00
2018-01-27T19:57:10.957Z,64.10
2018-01-27T19:59:37.354Z,64.20
2018-01-27T20:02:03.826Z,64.70
2018-01-27T20:04:30.573Z,63.20
2018-01-27T20:06:56.961Z,59.00
2018-01-27T20:09:23.324Z,60.90
2018-01-27T20:11:49.712Z,62.10
2018-01-27T20:14:16.848Z,63.90
2018-01-27T20:16:43.644Z,63.80
2018-01-27T20:19:10.004Z,63.50
2018-01-27T20:21:36.419Z,64.20
2018-01-27T20:24:02.841Z,64.30
2018-01-27T20:26:29.208Z,64.70
2018-01-27T20:28:55.769Z,64.50
2018-01-27T20:31:22.184Z,65.10
2018-01-27T20:33:48.575Z,65.20
2018-01-27T20:36:16.536Z,65.30
2018-01-27T20:38:42.999Z,65.80
2018-01-27T20:41:10.597Z,63.20
2018-01-27T20:43:38.280Z,63.00
2018-01-27T20:46:04.685Z,59.70
2018-01-27T20:48:31.900Z,59.30
2018-01-27T20:50:58.297Z,59.20
2018-01-27T20:59:44.900Z,64.00
2018-01-27T21:02:11.275Z,64.50
2018-01-27T21:04:37.648Z,65.00
2018-01-27T21:07:04.097Z,64.80
2018-01-27T21:09:30.514Z,65.40
2018-01-27T21:11:56.938Z,61.10
2018-01-27T21:14:23.595Z,59.80
2018-01-27T21:16:50.015Z,59.70
2018-01-27T21:19:16.415Z,60.90
2018-01-27T21:24:39.337Z,63.10
2018-01-27T21:27:05.681Z,65.50
2018-01-27T21:29:32.078Z,65.40
2018-01-27T21:31:58.492Z,66.20
2018-01-27T21:34:25.679Z,66.50
2018-01-27T21:36:52.035Z,66.40
2018-01-27T21:39:18.382Z,66.50
2018-01-27T21:41:44.752Z,66.60
2018-01-27T21:44:11.154Z,66.80
2018-01-27T21:46:37.548Z,66.60
2018-01-27T21:49:04.034Z,66.60
2018-01-27T21:51:30.438Z,67.10
2018-01-27T21:53:56.845Z,67.40
2018-01-27T21:56:23.944Z,67.10
2018-01-27T21:58:50.299Z,67.30
2018-01-27T22:01:16.911Z,67.80
2018-01-27T22:03:43.306Z,68.00
2018-01-27T22:06:09.706Z,67.90
2018-01-27T22:08:36.177Z,67.90
2018-01-27T22:11:02.551Z,68.00
2018-01-27T22:13:28.939Z,68.00
2018-01-27T22:18:52.059Z,68.30
2018-01-27T22:21:18.472Z,68.60
2018-01-27T22:23:44.825Z,68.10
2018-01-27T22:26:12.128Z,68.00
2018-01-27T22:28:38.498Z,67.90
2018-01-27T22:31:04.880Z,68.20
2018-01-27T22:33:31.256Z,67.70
2018-01-27T22:35:57.812Z,68.40
2018-01-27T22:38:24.920Z,68.70
2018-01-27T22:40:51.310Z,68.50
2018-01-27T22:43:17.709Z,68.10
2018-01-27T22:45:44.068Z,68.20
2018-01-27T22:48:10.496Z,68.50
2018-01-27T22:50:36.873Z,68.30
2018-01-27T22:53:03.232Z,68.50
2018-01-27T22:55:29.629Z,68.90
2018-01-27T22:57:56.727Z,68.30
2018-01-27T23:03:37.057Z,68.60
2018-01-27T23:09:00.791Z,69.20
2018-01-27T23:11:27.171Z,68.90
2018-01-27T23:13:53.560Z,69.50
2018-01-27T23:16:19.907Z,69.20
2018-01-27T23:18:46.276Z,69.30
2018-01-27T23:21:12.624Z,69.30
2018-01-27T23:26:35.518Z,69.40
2018-01-27T23:29:15.127Z,69.90
2018-01-27T23:31:42.235Z,69.60
2018-01-27T23:34:08.629Z,69.80
2018-01-27T23:36:34.978Z,65.40
2018-01-27T23:39:01.375Z,62.00
2018-01-27T23:41:28.496Z,57.90
2018-01-27T23:43:54.829Z,57.80
2018-01-27T23:46:21.160Z,58.10
2018-01-27T23:48:47.523Z,56.60
2018-01-27T23:51:13.891Z,55.60
2018-01-27T23:53:40.995Z,53.90
2018-01-27T23:56:07.347Z,54.10
2018-01-27T23:58:33.709Z,52.90
